AQQ10 IFIS: Internet Flight Information System
logo dgac
Lunes 27 de Septiembre del 2021
Buscar por aerodromo o helipuerto
Ingrese nombre de aeródromo, localidad o designador OACI:
METAR del 26-09-2021 a las 21:00 UTC
Para mayor información visite www.meteochile.cl
METAR SCBA 262100Z 29019KT 9999 FEW040 07/M01 Q1017
Viento: dirección 290 grados, velocidad 19 nudos
Visibilidad: 10 km o más
Nubes: Escasa nubosidad a 4000 pies sobre el nivel del aeródromo
Temperatura: 7 °C
Rocío: -1 °C
Humedad_relativa: 57%
Presión: 1017 hPa
METAR del 26-09-2021 a las 20:00 UTC
Para mayor información visite www.meteochile.cl
METAR SCBA 262000Z 30021KT 9999 FEW040 07/M02 Q1017
Viento: dirección 300 grados, velocidad 21 nudos
Visibilidad: 10 km o más
Nubes: Escasa nubosidad a 4000 pies sobre el nivel del aeródromo
Temperatura: 7 °C
Rocío: -2 °C
Humedad_relativa: 53%
Presión: 1017 hPa
METAR del 26-09-2021 a las 19:00 UTC
Para mayor información visite www.meteochile.cl
METAR SCBA 261900Z 29020KT 9999 SCT040 08/M02 Q1018
Viento: dirección 290 grados, velocidad 20 nudos
Visibilidad: 10 km o más
Nubes: Nubosidad parcial a 4000 pies sobre el nivel del aeródromo
Temperatura: 8 °C
Rocío: -2 °C
Humedad_relativa: 49%
Presión: 1018 hPa
METAR del 26-09-2021 a las 18:00 UTC
Para mayor información visite www.meteochile.cl
METAR SCBA 261800Z 30022KT 9999 FEW040 08/M02 Q1018
Viento: dirección 300 grados, velocidad 22 nudos
Visibilidad: 10 km o más
Nubes: Escasa nubosidad a 4000 pies sobre el nivel del aeródromo
Temperatura: 8 °C
Rocío: -2 °C
Humedad_relativa: 49%
Presión: 1018 hPa
METAR del 26-09-2021 a las 17:00 UTC
Para mayor información visite www.meteochile.cl
METAR SCBA 261700Z 30022KT 9999 SCT040 07/M04 Q1018
Viento: dirección 300 grados, velocidad 22 nudos
Visibilidad: 10 km o más
Nubes: Nubosidad parcial a 4000 pies sobre el nivel del aeródromo
Temperatura: 7 °C
Rocío: -4 °C
Humedad_relativa: 45%
Presión: 1018 hPa
METAR del 26-09-2021 a las 16:00 UTC
Para mayor información visite www.meteochile.cl
METAR SCBA 261600Z 30020KT 9999 FEW030 08/M05 Q1019
Viento: dirección 300 grados, velocidad 20 nudos
Visibilidad: 10 km o más
Nubes: Escasa nubosidad a 3000 pies sobre el nivel del aeródromo
Temperatura: 8 °C
Rocío: -5 °C
Humedad_relativa: 39%
Presión: 1019 hPa
METAR del 26-09-2021 a las 15:00 UTC
Para mayor información visite www.meteochile.cl
METAR SCBA 261500Z 30019KT 9999 FEW030 07/M05 Q1019
Viento: dirección 300 grados, velocidad 19 nudos
Visibilidad: 10 km o más
Nubes: Escasa nubosidad a 3000 pies sobre el nivel del aeródromo
Temperatura: 7 °C
Rocío: -5 °C
Humedad_relativa: 42%
Presión: 1019 hPa
METAR del 26-09-2021 a las 14:00 UTC
Para mayor información visite www.meteochile.cl
METAR SCBA 261400Z 30019KT 9999 FEW030 06/M05 Q1019
Viento: dirección 300 grados, velocidad 19 nudos
Visibilidad: 10 km o más
Nubes: Escasa nubosidad a 3000 pies sobre el nivel del aeródromo
Temperatura: 6 °C
Rocío: -5 °C
Humedad_relativa: 45%
Presión: 1019 hPa
METAR del 26-09-2021 a las 13:00 UTC
Para mayor información visite www.meteochile.cl
METAR SCBA 261300Z 30019KT 9999 FEW030 04/M03 Q1019
Viento: dirección 300 grados, velocidad 19 nudos
Visibilidad: 10 km o más
Nubes: Escasa nubosidad a 3000 pies sobre el nivel del aeródromo
Temperatura: 4 °C
Rocío: -3 °C
Humedad_relativa: 60%
Presión: 1019 hPa
METAR del 26-09-2021 a las 12:00 UTC
Para mayor información visite www.meteochile.cl
METAR SCBA 261200Z 29015KT 9999 FEW030 02/M03 Q1019
Viento: dirección 290 grados, velocidad 15 nudos
Visibilidad: 10 km o más
Nubes: Escasa nubosidad a 3000 pies sobre el nivel del aeródromo
Temperatura: 2 °C
Rocío: -3 °C
Humedad_relativa: 69%
Presión: 1019 hPa